Time;durP1;ratioP1;P1;durP2;ratioP2;P2;SDS_P1;SDS_P2;PMS_P1;PMS_P2;Temp;Humidity;BMP_temperature;BMP_pressure;BME280_temperature;BME280_humidity;BME280_pressure;Samples;Min_cycle;Max_cycle;Signal;HPM_P1;HPM_P2
2021/12/16 00:09:35;;;;;;;27.23;22.55;;;12.10;99.90;;;;;;5033169;28;20217;-62
2021/12/16 00:31:52;;;;;;;34.95;24.30;;;11.90;99.90;;;;;;5032176;28;20222;-62
2021/12/16 00:34:21;;;;;;;31.08;21.88;;;11.90;99.90;;;;;;5032725;28;20220;-62
2021/12/16 00:36:50;;;;;;;35.05;22.05;;;11.90;99.90;;;;;;5032731;28;20229;-62
2021/12/16 00:39:19;;;;;;;30.80;23.08;;;11.90;99.90;;;;;;5032261;28;20312;-62
2021/12/16 00:41:50;;;;;;;31.00;22.20;;;11.90;99.90;;;;;;5033054;28;20220;-65
2021/12/16 00:44:47;;;;;;;32.65;23.70;;;11.90;99.90;;;;;;5032455;28;20232;-62
2021/12/16 00:47:27;;;;;;;30.48;21.85;;;11.90;99.90;;;;;;5032029;28;20221;-62
2021/12/16 00:50:04;;;;;;;32.63;21.40;;;11.90;99.90;;;;;;5022011;28;20229;-62
2021/12/16 00:55:26;;;;;;;33.08;22.10;;;11.80;99.90;;;;;;5026408;28;20569;-62
2021/12/16 00:57:53;;;;;;;34.40;23.58;;;11.80;99.90;;;;;;5001858;28;20222;-62
2021/12/16 01:00:25;;;;;;;33.80;22.67;;;11.80;99.90;;;;;;5021841;28;20240;-62
2021/12/16 01:03:04;;;;;;;29.73;22.40;;;11.80;99.90;;;;;;5020471;28;20317;-62
2021/12/16 01:36:22;;;;;;;33.58;22.83;;;11.60;99.90;;;;;;5062613;28;20211;-62
2021/12/16 01:47:39;;;;;;;28.02;21.17;;;11.40;99.90;;;;;;5088679;28;20616;-62
2021/12/16 01:50:12;;;;;;;34.25;22.48;;;11.40;99.90;;;;;;5085657;28;20440;-62
2021/12/16 01:55:46;;;;;;;33.05;21.33;;;11.40;99.90;;;;;;5086363;28;20254;-63
2021/12/16 01:58:19;;;;;;;27.88;20.25;;;11.50;99.90;;;;;;5089082;28;20318;-63
2021/12/16 02:00:57;;;;;;;36.25;21.73;;;11.40;99.90;;;;;;5085173;28;20224;-63
2021/12/16 02:03:39;;;;;;;24.67;17.63;;;11.50;99.90;;;;;;5076863;28;20281;-63
2021/12/16 02:06:14;;;;;;;25.15;18.70;;;11.40;99.90;;;;;;5087908;28;20227;-61
2021/12/16 02:08:42;;;;;;;23.65;18.67;;;11.40;99.90;;;;;;5088244;28;20231;-62
2021/12/16 02:11:30;;;;;;;23.83;19.05;;;11.40;99.90;;;;;;5088501;28;20315;-62
2021/12/16 02:28:15;;;;;;;19.20;14.70;;;11.40;99.90;;;;;;5072342;28;20781;-62
2021/12/16 02:34:02;;;;;;;15.88;12.25;;;11.40;99.90;;;;;;5062780;28;20717;-62
2021/12/16 02:36:36;;;;;;;16.77;12.70;;;11.40;99.90;;;;;;5062066;28;20236;-62
2021/12/16 02:39:08;;;;;;;17.65;13.18;;;11.30;99.90;;;;;;5074639;28;20292;-62
2021/12/16 02:41:37;;;;;;;18.55;13.48;;;11.30;99.90;;;;;;5074174;28;20228;-62
2021/12/16 02:49:39;;;;;;;15.90;10.15;;;11.40;99.90;;;;;;5060844;28;20236;-62
2021/12/16 02:52:07;;;;;;;14.68;10.43;;;11.40;99.90;;;;;;5073430;28;20239;-62
2021/12/16 02:54:35;;;;;;;14.20;10.90;;;11.40;99.90;;;;;;5073233;28;20224;-62
2021/12/16 02:57:03;;;;;;;17.92;12.10;;;11.30;99.90;;;;;;5073441;28;20235;-62
2021/12/16 02:59:30;;;;;;;13.55;11.68;;;11.40;99.90;;;;;;5073089;28;20258;-62
2021/12/16 03:02:04;;;;;;;15.77;10.75;;;11.30;99.90;;;;;;5073780;28;20690;-62
2021/12/16 03:04:31;;;;;;;14.98;11.75;;;11.30;99.90;;;;;;5073694;28;20235;-62
2021/12/16 03:07:00;;;;;;;11.30;10.20;;;11.40;99.90;;;;;;5074034;28;20307;-62
2021/12/16 03:10:02;;;;;;;18.33;11.27;;;11.40;99.90;;;;;;5068119;28;20550;-62
2021/12/16 03:12:55;;;;;;;15.55;11.75;;;11.40;99.90;;;;;;5059183;28;20289;-62
2021/12/16 03:15:38;;;;;;;17.02;11.45;;;11.40;99.90;;;;;;5063780;28;20233;-62
2021/12/16 03:18:14;;;;;;;15.02;10.38;;;11.30;99.90;;;;;;5073998;28;20682;-61
2021/12/16 03:20:45;;;;;;;10.85;8.65;;;11.30;99.90;;;;;;5065156;28;20231;-62
2021/12/16 03:23:33;;;;;;;12.18;10.23;;;11.30;99.90;;;;;;5071639;28;20222;-63
2021/12/16 03:26:28;;;;;;;15.43;11.65;;;11.30;99.90;;;;;;5065095;28;20667;-62
2021/12/16 03:29:11;;;;;;;11.85;9.80;;;11.30;99.90;;;;;;5049758;28;20275;-62
2021/12/16 03:31:53;;;;;;;12.82;9.35;;;11.30;99.90;;;;;;5062826;28;20233;-60
2021/12/16 03:37:18;;;;;;;13.25;9.48;;;11.30;99.90;;;;;;5072569;28;20224;-63
2021/12/16 03:39:48;;;;;;;11.73;9.98;;;11.30;99.90;;;;;;5072942;28;20290;-62
2021/12/16 03:42:18;;;;;;;12.90;11.05;;;11.30;99.90;;;;;;5073481;28;20225;-63
2021/12/16 03:44:54;;;;;;;13.48;9.38;;;11.30;99.90;;;;;;5072845;28;20307;-61
2021/12/16 03:47:27;;;;;;;13.43;10.07;;;11.40;99.90;;;;;;5065499;28;20228;-63
2021/12/16 03:49:54;;;;;;;12.27;10.02;;;11.40;99.90;;;;;;5072812;28;20229;-63
2021/12/16 03:52:22;;;;;;;10.98;9.00;;;11.40;99.90;;;;;;5070067;28;20304;-63
2021/12/16 03:54:53;;;;;;;11.63;9.82;;;11.40;99.90;;;;;;5068045;28;20570;-62
2021/12/16 03:57:23;;;;;;;11.68;9.27;;;11.30;99.90;;;;;;5073231;28;20225;-62
2021/12/16 03:59:52;;;;;;;14.85;11.77;;;11.30;99.90;;;;;;5072674;28;20251;-62
2021/12/16 04:02:25;;;;;;;14.35;8.95;;;11.30;99.90;;;;;;5072940;28;20239;-62
2021/12/16 04:04:53;;;;;;;15.68;10.05;;;11.40;99.90;;;;;;5072552;28;20235;-63
2021/12/16 04:07:22;;;;;;;12.98;10.35;;;11.30;99.90;;;;;;5072888;28;20225;-62
2021/12/16 04:09:50;;;;;;;15.38;11.02;;;11.40;99.90;;;;;;5071884;28;20234;-62
2021/12/16 04:12:20;;;;;;;13.52;10.07;;;11.40;99.90;;;;;;5072892;28;20760;-62
2021/12/16 04:14:49;;;;;;;13.68;10.13;;;11.30;99.90;;;;;;5072293;28;20231;-62
2021/12/16 04:17:19;;;;;;;15.10;10.45;;;11.30;99.90;;;;;;5072765;28;20235;-62
2021/12/16 04:19:46;;;;;;;14.38;9.38;;;11.30;99.90;;;;;;5071157;28;20225;-62
2021/12/16 04:22:17;;;;;;;13.70;10.70;;;11.20;99.90;;;;;;5072487;28;20241;-62
2021/12/16 04:24:45;;;;;;;15.02;10.63;;;11.20;99.90;;;;;;5072330;28;20232;-63
2021/12/16 04:27:13;;;;;;;10.48;8.77;;;11.20;99.90;;;;;;5072618;28;20766;-63
2021/12/16 04:29:40;;;;;;;14.48;9.48;;;11.20;99.90;;;;;;5065412;28;20234;-63
2021/12/16 04:32:08;;;;;;;12.75;9.82;;;11.20;99.90;;;;;;5072129;28;20562;-63
2021/12/16 04:34:36;;;;;;;12.52;10.00;;;11.20;99.90;;;;;;5072597;28;20221;-62
2021/12/16 04:37:05;;;;;;;12.43;10.05;;;11.20;99.90;;;;;;5072006;28;20551;-62
2021/12/16 04:39:33;;;;;;;9.57;8.45;;;11.20;99.90;;;;;;5072282;28;20317;-62
2021/12/16 04:42:01;;;;;;;11.55;9.30;;;11.20;99.90;;;;;;5071796;28;20570;-62
2021/12/16 04:44:29;;;;;;;14.93;10.23;;;11.20;99.90;;;;;;5072434;28;20228;-62
2021/12/16 04:46:56;;;;;;;13.50;9.50;;;11.30;99.90;;;;;;5060833;28;20217;-63
2021/12/16 04:49:24;;;;;;;16.80;10.18;;;11.30;99.90;;;;;;5062713;28;20345;-62
2021/12/16 04:51:58;;;;;;;12.90;11.00;;;11.30;99.90;;;;;;5071755;28;20575;-62
2021/12/16 04:54:29;;;;;;;12.00;10.68;;;11.30;99.90;;;;;;5064008;28;20231;-62
2021/12/16 04:56:57;;;;;;;12.23;9.93;;;11.30;99.90;;;;;;5071861;28;20666;-63
2021/12/16 04:59:25;;;;;;;15.32;11.48;;;11.30;99.90;;;;;;5072219;28;20234;-62
2021/12/16 05:01:55;;;;;;;12.05;10.10;;;11.30;99.90;;;;;;5071856;28;20551;-63
2021/12/16 05:04:22;;;;;;;12.13;10.30;;;11.30;99.90;;;;;;5072160;28;20225;-62
2021/12/16 05:06:49;;;;;;;12.15;9.77;;;11.30;99.90;;;;;;5071367;28;20233;-64
2021/12/16 05:09:44;;;;;;;12.77;10.40;;;11.30;99.90;;;;;;5071634;28;20264;-63
2021/12/16 05:12:05;;;;;;;14.32;11.18;;;11.40;99.90;;;;;;5061318;28;20286;-62
2021/12/16 05:14:31;;;;;;;13.15;9.75;;;11.40;99.90;;;;;;5072103;28;20231;-63
2021/12/16 05:16:59;;;;;;;17.10;12.50;;;11.40;99.90;;;;;;5071730;28;20247;-63
2021/12/16 05:19:25;;;;;;;16.13;10.50;;;11.40;99.90;;;;;;5072028;28;20232;-63
2021/12/16 05:21:58;;;;;;;15.93;11.32;;;11.40;99.90;;;;;;5071569;28;20335;-62
2021/12/16 05:24:25;;;;;;;15.07;11.50;;;11.30;99.90;;;;;;5071983;28;20220;-62
2021/12/16 05:26:55;;;;;;;17.67;12.10;;;11.30;99.90;;;;;;5071748;28;20226;-61
2021/12/16 05:29:22;;;;;;;18.13;13.30;;;11.30;99.90;;;;;;5071709;28;20232;-63
2021/12/16 05:31:50;;;;;;;15.68;11.07;;;11.30;99.90;;;;;;5071539;28;20228;-62
2021/12/16 05:34:17;;;;;;;17.15;13.77;;;11.20;99.90;;;;;;5071989;28;20220;-62
2021/12/16 05:36:45;;;;;;;17.35;13.88;;;11.20;99.90;;;;;;5072076;28;20546;-62
2021/12/16 05:39:13;;;;;;;15.50;13.50;;;11.20;99.90;;;;;;5071229;28;20713;-63
2021/12/16 05:41:41;;;;;;;20.98;13.07;;;11.20;99.90;;;;;;5072043;28;20705;-62
2021/12/16 05:44:09;;;;;;;14.85;11.27;;;11.10;99.90;;;;;;5071315;28;20233;-62
2021/12/16 05:46:37;;;;;;;15.02;11.77;;;11.10;99.90;;;;;;5064083;28;20229;-63
2021/12/16 05:49:06;;;;;;;15.38;13.73;;;11.00;99.90;;;;;;5071384;28;20239;-63
2021/12/16 05:51:36;;;;;;;15.73;11.60;;;11.00;99.90;;;;;;5071697;28;20705;-62
2021/12/16 05:54:06;;;;;;;15.02;12.50;;;10.90;99.90;;;;;;5064678;28;20229;-63
2021/12/16 05:56:33;;;;;;;17.95;13.77;;;10.90;99.90;;;;;;5075672;28;20247;-62
2021/12/16 05:59:01;;;;;;;20.88;13.95;;;10.90;99.90;;;;;;5075073;28;20581;-63
2021/12/16 06:01:32;;;;;;;20.30;13.25;;;10.80;99.90;;;;;;5075296;28;20772;-62
2021/12/16 06:03:59;;;;;;;16.17;12.73;;;10.80;99.90;;;;;;5074996;28;20228;-62
2021/12/16 06:06:28;;;;;;;20.45;12.50;;;10.80;99.90;;;;;;5074988;28;20320;-62
2021/12/16 06:08:56;;;;;;;19.10;13.10;;;10.90;99.90;;;;;;5074633;28;20229;-62
2021/12/16 06:11:28;;;;;;;15.98;12.60;;;10.80;99.90;;;;;;5074925;28;20243;-62
2021/12/16 06:14:07;;;;;;;17.10;13.15;;;10.80;99.90;;;;;;5074934;28;20741;-62
2021/12/16 06:27:36;;;;;;;16.48;12.35;;;10.80;99.90;;;;;;5075180;28;20232;-62
2021/12/16 06:30:05;;;;;;;15.50;12.13;;;10.80;99.90;;;;;;5066392;28;20221;-62
2021/12/16 06:32:33;;;;;;;15.48;12.85;;;10.80;99.90;;;;;;5058975;28;20224;-64
2021/12/16 06:35:01;;;;;;;18.65;12.80;;;10.80;99.90;;;;;;5074054;28;20220;-62
2021/12/16 06:37:28;;;;;;;18.40;12.57;;;10.80;99.90;;;;;;5074549;28;20238;-61
2021/12/16 06:39:55;;;;;;;15.15;12.63;;;10.80;99.90;;;;;;5074346;28;20225;-63
2021/12/16 06:42:23;;;;;;;15.27;11.85;;;10.80;99.90;;;;;;5074677;28;20220;-62
2021/12/16 06:44:54;;;;;;;19.77;13.48;;;10.80;99.90;;;;;;5066880;28;20222;-63
2021/12/16 06:47:26;;;;;;;21.58;13.55;;;10.80;99.90;;;;;;5057802;28;20222;-63
2021/12/16 06:49:55;;;;;;;14.93;12.23;;;10.80;99.90;;;;;;5074068;28;20228;-62
2021/12/16 06:52:28;;;;;;;17.08;13.38;;;10.80;99.90;;;;;;5072857;28;20244;-63
2021/12/16 06:55:05;;;;;;;14.63;11.95;;;10.90;99.90;;;;;;5074009;28;20697;-63
2021/12/16 06:57:49;;;;;;;19.10;12.68;;;10.90;99.90;;;;;;5074406;28;20224;-63
2021/12/16 07:00:28;;;;;;;13.20;11.15;;;10.90;99.90;;;;;;5069025;28;20229;-63
2021/12/16 07:03:01;;;;;;;26.60;15.10;;;10.90;99.90;;;;;;5055491;28;20224;-63
2021/12/16 07:05:34;;;;;;;19.73;14.07;;;10.90;99.90;;;;;;5065575;28;20286;-62
2021/12/16 07:08:03;;;;;;;18.58;12.57;;;10.90;99.90;;;;;;5069541;28;20257;-62
2021/12/16 07:10:30;;;;;;;18.25;13.00;;;10.90;99.90;;;;;;5071340;28;20234;-63
2021/12/16 07:13:01;;;;;;;22.70;12.60;;;10.90;99.90;;;;;;5074161;28;20220;-63
2021/12/16 07:15:31;;;;;;;19.60;14.02;;;10.90;99.90;;;;;;5073645;28;20232;-63
2021/12/16 07:17:58;;;;;;;17.30;13.90;;;11.00;99.90;;;;;;5074191;28;20216;-63
2021/12/16 07:20:30;;;;;;;18.27;13.15;;;10.90;99.90;;;;;;5073171;28;20225;-62
2021/12/16 07:23:00;;;;;;;17.98;13.65;;;10.90;99.90;;;;;;5073552;28;20217;-62
2021/12/16 07:25:27;;;;;;;16.80;13.13;;;10.90;99.90;;;;;;5073510;28;20685;-62
2021/12/16 07:27:55;;;;;;;22.48;15.05;;;10.90;99.90;;;;;;5073685;28;20225;-63
2021/12/16 07:30:23;;;;;;;22.25;14.57;;;10.90;99.90;;;;;;5073151;28;20728;-63
2021/12/16 07:32:51;;;;;;;20.67;15.60;;;10.80;99.90;;;;;;5073653;28;20716;-63
2021/12/16 07:35:22;;;;;;;19.15;15.23;;;10.80;99.90;;;;;;5073213;28;20228;-62
2021/12/16 07:37:50;;;;;;;18.42;13.13;;;10.80;99.90;;;;;;5073417;28;20232;-63
2021/12/16 07:40:22;;;;;;;20.63;13.30;;;10.80;99.90;;;;;;5073034;28;20577;-63
2021/12/16 07:43:10;;;;;;;18.55;13.25;;;10.90;99.90;;;;;;5073547;28;20220;-62
2021/12/16 07:45:39;;;;;;;18.52;12.85;;;10.90;99.90;;;;;;5072668;28;20571;-63
2021/12/16 07:48:07;;;;;;;17.35;14.88;;;10.90;99.90;;;;;;5047147;28;20218;-63
2021/12/16 07:50:34;;;;;;;27.60;17.90;;;10.90;99.90;;;;;;5054870;28;20611;-63
2021/12/16 07:53:01;;;;;;;20.80;15.35;;;10.90;99.90;;;;;;5066756;28;20226;-63
2021/12/16 07:55:30;;;;;;;19.48;13.48;;;11.00;99.90;;;;;;5072591;28;20572;-63
2021/12/16 07:57:56;;;;;;;22.42;16.30;;;11.00;99.90;;;;;;5072954;28;20236;-62
2021/12/16 08:00:27;;;;;;;21.73;14.27;;;11.10;99.90;;;;;;5072370;28;20238;-62
2021/12/16 08:02:55;;;;;;;21.45;15.40;;;11.00;99.90;;;;;;5073004;28;20239;-63
2021/12/16 08:05:25;;;;;;;18.35;14.57;;;11.00;99.90;;;;;;5072391;28;20307;-62
2021/12/16 08:07:53;;;;;;;26.48;17.48;;;11.00;99.90;;;;;;5072694;28;20573;-63
2021/12/16 08:10:23;;;;;;;17.77;15.07;;;11.00;99.90;;;;;;5072333;28;20247;-63
2021/12/16 08:12:52;;;;;;;20.63;13.60;;;11.10;99.90;;;;;;5072863;28;20238;-62
2021/12/16 08:15:20;;;;;;;21.25;12.18;;;11.10;99.90;;;;;;5072333;28;20316;-62
2021/12/16 08:17:47;;;;;;;19.67;14.25;;;11.20;99.90;;;;;;5072279;28;20223;-62
2021/12/16 08:20:18;;;;;;;17.75;13.23;;;11.10;99.90;;;;;;5072514;28;20249;-62
2021/12/16 08:22:45;;;;;;;15.60;11.90;;;11.10;99.90;;;;;;5068863;28;20224;-63
2021/12/16 08:25:13;;;;;;;17.13;11.52;;;11.10;99.90;;;;;;5055441;28;20691;-63
2021/12/16 08:27:40;;;;;;;12.55;11.07;;;11.10;99.90;;;;;;5071547;28;20573;-63
2021/12/16 08:30:12;;;;;;;13.85;11.60;;;11.10;99.90;;;;;;5072560;28;20239;-63
2021/12/16 08:32:40;;;;;;;18.17;12.25;;;11.10;99.90;;;;;;5072098;28;20234;-63
2021/12/16 08:35:08;;;;;;;18.00;12.13;;;11.10;99.90;;;;;;5072454;28;20225;-63
2021/12/16 08:37:36;;;;;;;16.67;11.75;;;11.20;99.90;;;;;;5072216;28;20217;-62
2021/12/16 08:40:05;;;;;;;18.15;14.27;;;11.20;99.90;;;;;;5059093;28;20250;-62
2021/12/16 08:42:32;;;;;;;18.60;12.60;;;11.20;99.90;;;;;;5071793;28;20308;-63
2021/12/16 08:44:59;;;;;;;15.32;11.80;;;11.20;99.90;;;;;;5072705;28;20239;-63
2021/12/16 08:47:27;;;;;;;15.60;11.43;;;11.20;99.90;;;;;;5059286;28;20239;-63
2021/12/16 08:49:54;;;;;;;20.02;12.65;;;11.20;99.90;;;;;;5072231;28;20224;-63
2021/12/16 08:52:23;;;;;;;16.08;13.10;;;11.30;99.90;;;;;;5070605;28;20562;-63
2021/12/16 08:54:52;;;;;;;24.10;16.77;;;11.30;99.90;;;;;;5068429;28;20244;-63
2021/12/16 08:57:19;;;;;;;15.88;12.02;;;11.30;99.90;;;;;;5059485;28;20228;-63
2021/12/16 08:59:48;;;;;;;16.40;12.90;;;11.30;99.90;;;;;;5071780;28;20239;-63
2021/12/16 09:02:17;;;;;;;19.75;11.65;;;11.30;99.90;;;;;;5072257;28;20228;-63
2021/12/16 09:04:45;;;;;;;12.73;11.40;;;11.30;99.90;;;;;;5071446;28;20609;-63
2021/12/16 09:07:13;;;;;;;14.95;11.82;;;11.30;99.90;;;;;;5072002;28;20243;-62
2021/12/16 09:09:43;;;;;;;14.95;11.10;;;11.30;99.90;;;;;;5062774;28;20568;-62
2021/12/16 09:12:25;;;;;;;16.38;11.52;;;11.30;99.90;;;;;;5071899;28;20244;-62
2021/12/16 09:14:52;;;;;;;13.50;10.95;;;11.30;99.90;;;;;;5061560;28;20965;-62
2021/12/16 09:17:19;;;;;;;12.63;10.98;;;11.40;99.90;;;;;;5072148;28;20279;-62
2021/12/16 09:19:52;;;;;;;14.68;11.73;;;11.40;99.90;;;;;;5071529;28;20243;-62
2021/12/16 09:22:20;;;;;;;19.27;11.65;;;11.50;99.90;;;;;;5071676;28;20234;-62
2021/12/16 09:24:49;;;;;;;18.70;11.57;;;11.40;99.90;;;;;;5065057;28;20565;-62
2021/12/16 09:27:17;;;;;;;13.30;9.82;;;11.40;99.90;;;;;;5069003;28;20224;-62
2021/12/16 09:29:45;;;;;;;14.90;11.95;;;11.50;99.90;;;;;;5074474;28;20233;-62
2021/12/16 09:32:12;;;;;;;16.42;10.38;;;11.50;99.90;;;;;;5076091;28;20581;-62
2021/12/16 09:34:42;;;;;;;12.68;10.52;;;11.50;99.90;;;;;;5075631;28;20575;-63
2021/12/16 09:37:10;;;;;;;15.30;11.88;;;11.50;99.90;;;;;;5075677;28;20585;-63
2021/12/16 09:39:38;;;;;;;18.23;12.05;;;11.50;99.90;;;;;;5075460;28;20228;-62
2021/12/16 09:42:07;;;;;;;15.38;11.48;;;11.50;99.90;;;;;;5075725;28;20231;-62
2021/12/16 09:44:36;;;;;;;13.05;10.60;;;11.50;99.90;;;;;;5075120;28;20224;-63
2021/12/16 09:47:06;;;;;;;16.15;10.50;;;11.60;99.90;;;;;;5068723;28;20221;-63
2021/12/16 09:49:32;;;;;;;13.02;10.57;;;11.60;99.90;;;;;;5074800;28;20224;-62
2021/12/16 09:52:00;;;;;;;14.88;11.00;;;11.60;99.90;;;;;;5075434;28;20707;-62
2021/12/16 09:54:31;;;;;;;14.13;10.77;;;11.60;99.90;;;;;;5069625;28;20225;-63
2021/12/16 09:56:58;;;;;;;12.10;10.23;;;11.60;99.90;;;;;;5070743;28;20712;-62
2021/12/16 09:59:28;;;;;;;16.48;11.27;;;11.60;99.90;;;;;;5063221;28;20242;-62
2021/12/16 10:01:58;;;;;;;14.38;10.95;;;11.60;99.90;;;;;;5074610;28;20219;-62
2021/12/16 10:04:31;;;;;;;14.65;10.23;;;11.60;99.90;;;;;;5075475;28;20246;-62
2021/12/16 10:07:00;;;;;;;14.98;11.50;;;11.70;99.90;;;;;;5074622;28;20731;-62
2021/12/16 10:09:29;;;;;;;18.30;11.15;;;11.70;99.90;;;;;;5074695;28;20304;-62
2021/12/16 10:11:59;;;;;;;15.25;11.90;;;11.70;99.90;;;;;;5074734;28;20728;-63
2021/12/16 10:14:46;;;;;;;14.35;10.75;;;11.70;99.90;;;;;;5074892;28;20686;-62
2021/12/16 10:17:24;;;;;;;17.15;11.85;;;11.70;99.90;;;;;;5067057;28;20232;-62
2021/12/16 10:19:52;;;;;;;17.55;12.48;;;11.70;99.90;;;;;;5067366;28;20248;-62
2021/12/16 10:22:26;;;;;;;13.50;10.38;;;11.70;99.90;;;;;;5066198;28;20303;-62
2021/12/16 10:24:57;;;;;;;12.52;10.27;;;11.80;99.90;;;;;;5071752;28;20726;-63
2021/12/16 10:27:27;;;;;;;13.40;10.52;;;11.80;99.90;;;;;;5074561;28;20221;-62
2021/12/16 10:29:57;;;;;;;14.50;10.30;;;11.80;99.90;;;;;;5067292;28;20222;-62
2021/12/16 10:32:40;;;;;;;12.25;9.90;;;11.80;99.90;;;;;;5065982;28;20226;-62
2021/12/16 10:35:12;;;;;;;11.02;8.07;;;11.80;99.90;;;;;;5074342;28;20296;-62
2021/12/16 10:37:41;;;;;;;12.00;8.73;;;11.90;99.90;;;;;;5074652;28;20220;-62
2021/12/16 10:40:36;;;;;;;10.85;8.68;;;11.80;99.90;;;;;;5073525;28;20678;-63
2021/12/16 10:43:07;;;;;;;11.70;10.43;;;11.90;99.90;;;;;;5074099;28;20221;-62
2021/12/16 10:45:37;;;;;;;9.98;8.95;;;11.90;99.90;;;;;;5074638;28;20561;-62
2021/12/16 10:48:18;;;;;;;9.13;8.20;;;11.90;99.90;;;;;;5069037;28;20220;-62
2021/12/16 10:51:07;;;;;;;10.45;9.25;;;11.90;99.90;;;;;;5074401;28;20220;-62
2021/12/16 10:53:49;;;;;;;9.70;8.70;;;11.90;99.90;;;;;;5064007;28;20920;-62
2021/12/16 10:56:19;;;;;;;14.77;8.35;;;12.00;99.90;;;;;;5060915;28;20273;-62
2021/12/16 10:58:52;;;;;;;9.23;7.90;;;12.00;99.90;;;;;;5070939;28;20222;-62
2021/12/16 11:01:46;;;;;;;9.32;8.10;;;12.00;99.90;;;;;;5073028;28;20273;-63
2021/12/16 11:04:18;;;;;;;7.78;7.00;;;12.00;99.90;;;;;;5066928;28;20549;-63
2021/12/16 11:06:49;;;;;;;9.73;7.75;;;12.00;99.90;;;;;;5072495;28;20663;-63
2021/12/16 11:09:37;;;;;;;7.80;6.90;;;12.00;99.90;;;;;;5067170;28;20666;-64
2021/12/16 11:12:24;;;;;;;7.40;6.72;;;12.10;99.90;;;;;;5067969;28;20216;-63
2021/12/16 11:14:54;;;;;;;7.47;6.78;;;12.10;99.90;;;;;;5065029;28;20214;-63
2021/12/16 11:17:23;;;;;;;10.25;7.35;;;12.20;99.90;;;;;;5063096;28;20224;-63
2021/12/16 11:19:58;;;;;;;9.32;6.97;;;12.20;99.90;;;;;;5069470;28;20323;-63
2021/12/16 11:22:30;;;;;;;8.30;7.50;;;12.20;99.90;;;;;;5060032;28;21021;-63
2021/12/16 11:24:57;;;;;;;10.30;9.30;;;12.20;99.90;;;;;;5056173;28;20221;-63
2021/12/16 11:27:31;;;;;;;12.32;8.55;;;12.20;99.90;;;;;;5073227;28;20232;-63
2021/12/16 11:30:00;;;;;;;10.45;7.93;;;12.30;99.90;;;;;;5064857;28;20233;-63
2021/12/16 11:32:40;;;;;;;13.23;7.75;;;12.30;99.90;;;;;;5066291;28;20218;-63
2021/12/16 11:35:33;;;;;;;12.50;8.48;;;12.30;99.90;;;;;;5063427;28;20212;-63
2021/12/16 11:38:05;;;;;;;13.00;10.35;;;12.30;99.90;;;;;;5069886;28;20221;-64
2021/12/16 11:41:05;;;;;;;19.70;13.90;;;12.40;99.90;;;;;;5072871;28;20936;-64
2021/12/16 11:43:38;;;;;;;14.35;12.70;;;12.40;99.90;;;;;;5069784;28;20679;-63
2021/12/16 11:46:12;;;;;;;8.82;7.88;;;12.40;99.90;;;;;;5067052;28;20221;-63
2021/12/16 11:48:40;;;;;;;11.43;10.00;;;12.40;99.90;;;;;;5063112;28;21011;-63
2021/12/16 11:51:11;;;;;;;8.55;6.75;;;12.40;99.90;;;;;;5055276;28;20221;-63
2021/12/16 11:53:44;;;;;;;9.52;8.48;;;12.40;99.90;;;;;;5064798;28;20217;-63
2021/12/16 11:56:12;;;;;;;7.18;5.90;;;12.40;99.90;;;;;;5066239;28;20231;-63
2021/12/16 11:58:43;;;;;;;8.18;7.18;;;12.40;99.90;;;;;;5054387;28;20327;-63
2021/12/16 12:01:20;;;;;;;8.50;7.13;;;12.30;99.90;;;;;;5053986;28;20228;-63
2021/12/16 12:03:48;;;;;;;7.10;6.45;;;12.40;99.90;;;;;;5060829;28;21283;-63
2021/12/16 12:06:26;;;;;;;7.57;6.47;;;12.30;99.90;;;;;;5072396;28;20225;-63
2021/12/16 12:08:55;;;;;;;6.47;5.78;;;12.30;99.90;;;;;;5061676;28;20231;-63
2021/12/16 12:11:25;;;;;;;6.75;5.20;;;12.30;99.90;;;;;;5068352;28;20236;-63
2021/12/16 12:13:57;;;;;;;10.75;7.78;;;12.30;99.90;;;;;;5069478;28;20214;-63
2021/12/16 12:16:30;;;;;;;6.32;5.72;;;12.30;99.90;;;;;;5067956;28;20225;-63
2021/12/16 12:18:59;;;;;;;7.68;5.65;;;12.30;99.90;;;;;;5054999;28;20237;-63
2021/12/16 12:21:33;;;;;;;6.53;5.55;;;12.30;99.90;;;;;;5072197;28;20661;-63
2021/12/16 12:24:03;;;;;;;7.20;6.05;;;12.20;99.90;;;;;;5065780;28;20219;-63
2021/12/16 12:26:33;;;;;;;7.35;4.75;;;12.20;99.90;;;;;;5070175;28;20220;-63
2021/12/16 12:29:06;;;;;;;5.43;4.80;;;12.20;99.90;;;;;;5072535;28;20217;-63
2021/12/16 12:31:38;;;;;;;5.07;4.47;;;12.20;99.90;;;;;;5072284;28;20236;-63
2021/12/16 12:34:05;;;;;;;8.70;5.85;;;12.20;99.90;;;;;;5064051;28;20238;-63
2021/12/16 12:36:31;;;;;;;6.25;5.13;;;12.20;99.90;;;;;;5063996;28;20240;-63
2021/12/16 12:39:02;;;;;;;9.80;8.90;;;12.20;99.90;;;;;;5072011;28;20227;-63
2021/12/16 12:41:29;;;;;;;8.68;4.93;;;12.20;99.90;;;;;;5063113;28;20236;-62
2021/12/16 12:43:57;;;;;;;5.35;3.92;;;12.30;99.90;;;;;;5071953;28;20226;-63
2021/12/16 12:46:25;;;;;;;4.40;4.00;;;12.30;99.90;;;;;;5071949;28;20228;-63
2021/12/16 12:48:55;;;;;;;7.20;6.03;;;12.30;99.90;;;;;;5071249;28;20221;-63
2021/12/16 12:51:33;;;;;;;5.95;5.28;;;12.30;99.90;;;;;;5063742;28;20233;-63
2021/12/16 12:54:13;;;;;;;5.30;4.80;;;12.40;99.90;;;;;;5071480;28;20232;-64
2021/12/16 12:56:40;;;;;;;6.20;4.65;;;12.40;99.90;;;;;;5072417;28;20246;-64
2021/12/16 12:59:11;;;;;;;7.30;4.20;;;12.40;99.90;;;;;;5071388;28;20251;-64
2021/12/16 13:01:53;;;;;;;4.50;3.80;;;12.30;99.90;;;;;;5072088;28;20232;-64
2021/12/16 13:04:23;;;;;;;6.75;5.40;;;12.30;99.90;;;;;;5052951;28;20218;-63
2021/12/16 13:06:58;;;;;;;7.60;5.80;;;12.40;99.90;;;;;;5071874;28;20243;-62
2021/12/16 13:09:29;;;;;;;7.75;5.72;;;12.40;99.90;;;;;;5071133;28;20311;-63
2021/12/16 13:11:56;;;;;;;7.85;4.80;;;12.30;99.90;;;;;;5071852;28;20958;-63
2021/12/16 13:14:41;;;;;;;5.55;3.95;;;12.30;99.90;;;;;;5056601;28;20603;-63
2021/12/16 13:17:42;;;;;;;6.00;4.05;;;12.30;99.90;;;;;;5072376;28;20241;-63
2021/12/16 13:28:47;;;;;;;9.48;5.22;;;12.20;99.90;;;;;;5050708;28;20244;-63
2021/12/16 13:31:39;;;;;;;5.80;5.20;;;12.20;99.90;;;;;;5062766;28;20225;-62
2021/12/16 13:34:29;;;;;;;5.13;4.38;;;12.20;99.90;;;;;;5062450;28;20221;-63
2021/12/16 13:37:02;;;;;;;6.40;5.30;;;12.20;99.90;;;;;;5060116;28;20218;-62
2021/12/16 13:39:30;;;;;;;6.55;4.93;;;12.20;99.90;;;;;;5068864;28;20221;-62
2021/12/16 13:42:05;;;;;;;6.47;4.60;;;12.20;99.90;;;;;;5054361;28;20221;-62
2021/12/16 13:44:41;;;;;;;6.38;4.93;;;12.20;99.90;;;;;;5070519;28;20220;-63
2021/12/16 13:47:17;;;;;;;4.47;4.07;;;12.20;99.90;;;;;;5056035;28;20224;-62
2021/12/16 14:02:14;;;;;;;7.25;4.72;;;12.10;99.90;;;;;;5120135;27;20564;-63
2021/12/16 14:07:57;;;;;;;3.92;3.58;;;12.10;99.90;;;;;;5105329;27;20657;-62
2021/12/16 14:10:48;;;;;;;6.03;4.53;;;12.10;99.90;;;;;;5123626;27;20224;-63
2021/12/16 14:16:31;;;;;;;7.10;5.55;;;12.00;99.90;;;;;;5102861;27;20570;-62
2021/12/16 14:36:26;;;;;;;5.50;4.07;;;11.90;99.90;;;;;;5132545;27;20257;-63
2021/12/16 14:39:13;;;;;;;8.43;4.72;;;11.90;99.90;;;;;;5128124;27;20234;-62
2021/12/16 14:41:50;;;;;;;4.38;3.45;;;11.90;99.90;;;;;;5138347;27;20742;-63
2021/12/16 14:47:17;;;;;;;7.10;3.72;;;11.90;99.90;;;;;;5128894;27;20229;-63
2021/12/16 14:49:47;;;;;;;9.90;4.13;;;11.80;99.90;;;;;;5128606;27;20219;-62
2021/12/16 14:52:17;;;;;;;9.05;4.18;;;11.70;99.90;;;;;;5124423;27;20229;-62
2021/12/16 14:54:55;;;;;;;9.60;4.13;;;11.70;99.90;;;;;;5125330;27;20234;-63
2021/12/16 14:57:25;;;;;;;6.97;5.10;;;11.70;99.90;;;;;;5127400;27;20697;-63
2021/12/16 14:59:53;;;;;;;7.80;6.10;;;11.70;99.90;;;;;;5128097;27;20232;-63
2021/12/16 15:02:23;;;;;;;5.93;4.90;;;11.70;99.90;;;;;;5129050;27;20219;-63
2021/12/16 15:04:50;;;;;;;15.65;6.63;;;11.70;99.90;;;;;;5128970;27;20648;-62
2021/12/16 15:07:19;;;;;;;8.15;7.13;;;11.60;99.90;;;;;;5129399;27;20229;-62
2021/12/16 15:09:47;;;;;;;8.45;4.88;;;11.60;99.90;;;;;;5128948;27;20241;-62
2021/12/16 15:12:24;;;;;;;7.15;4.10;;;11.60;99.90;;;;;;5121761;27;20618;-63
2021/12/16 15:15:07;;;;;;;5.90;4.13;;;11.60;99.90;;;;;;5115311;27;20230;-64
2021/12/16 15:31:44;;;;;;;6.45;5.85;;;11.60;99.90;;;;;;5115726;27;20220;-63
2021/12/16 15:37:32;;;;;;;7.47;4.43;;;11.40;99.90;;;;;;5108796;27;20251;-63
2021/12/16 15:40:15;;;;;;;6.13;4.07;;;11.40;99.90;;;;;;5101483;27;20302;-62
2021/12/16 15:42:47;;;;;;;7.80;5.35;;;11.40;99.90;;;;;;5127730;27;20227;-62
2021/12/16 15:45:17;;;;;;;5.10;3.85;;;11.40;99.90;;;;;;5114486;27;20226;-63
2021/12/16 15:47:47;;;;;;;7.07;5.10;;;11.40;99.90;;;;;;5114316;27;20261;-62
2021/12/16 15:50:18;;;;;;;11.80;4.28;;;11.30;99.90;;;;;;5114668;27;20229;-63
2021/12/16 15:52:47;;;;;;;6.78;4.35;;;11.30;99.90;;;;;;5100155;27;20225;-65